Time;durP1;ratioP1;P1;durP2;ratioP2;P2;SDS_P1;SDS_P2;PMS_P1;PMS_P2;Temp;Humidity;BMP_temperature;BMP_pressure;BME280_temperature;BME280_humidity;BME280_pressure;Samples;Min_cycle;Max_cycle;Signal;HPM_P1;HPM_P2
2022/07/28 00:00:14;;;;;;;;;;;;;;;16.83;65.65;98537.83;106113;1284;22573;-89
2022/07/28 00:03:00;;;;;;;;;;;;;;;16.76;65.81;98534.98;105866;1282;124273;-89
2022/07/28 00:05:27;;;;;;;;;;;;;;;16.71;66.03;98533.47;106469;1284;23372;-89
2022/07/28 00:07:55;;;;;;;;;;;;;;;16.66;66.15;98529.98;106015;1284;22557;-89
2022/07/28 00:10:24;;;;;;;;;;;;;;;16.64;66.27;98532.42;105731;1284;125358;-89
2022/07/28 00:12:52;;;;;;;;;;;;;;;16.61;66.03;98531.89;106561;1283;22559;-89
2022/07/28 00:15:19;;;;;;;;;;;;;;;16.59;66.18;98531.02;105697;1283;124607;-89
2022/07/28 00:17:45;;;;;;;;;;;;;;;16.58;66.21;98533.33;106202;1284;23942;-89
2022/07/28 00:20:13;;;;;;;;;;;;;;;16.55;66.55;98531.58;105777;1285;22756;-88
2022/07/28 00:22:40;;;;;;;;;;;;;;;16.52;66.74;98534.77;105860;1282;22598;-90
2022/07/28 00:25:07;;;;;;;;;;;;;;;16.47;66.13;98535.85;105817;1284;24370;-89
2022/07/28 00:27:36;;;;;;;;;;;;;;;16.43;65.98;98545.27;106064;1284;124675;-88
2022/07/28 00:30:09;;;;;;;;;;;;;;;16.38;66.03;98542.43;106033;1284;22771;-91
2022/07/28 00:32:36;;;;;;;;;;;;;;;16.35;66.17;98551.13;105878;1284;124176;-89
2022/07/28 00:35:04;;;;;;;;;;;;;;;16.31;66.21;98549.71;106075;1284;22650;-89
2022/07/28 00:37:30;;;;;;;;;;;;;;;16.26;66.54;98547.32;106211;1284;22556;-89
2022/07/28 00:39:58;;;;;;;;;;;;;;;16.24;66.98;98548.30;105906;1284;124438;-91
2022/07/28 00:42:24;;;;;;;;;;;;;;;16.24;66.64;98547.86;106210;1284;25252;-91
2022/07/28 00:44:50;;;;;;;;;;;;;;;16.27;66.43;98550.66;105962;1284;124253;-88
2022/07/28 00:47:22;;;;;;;;;;;;;;;16.28;66.06;98550.45;105934;1285;24403;-88
2022/07/28 00:49:57;;;;;;;;;;;;;;;16.28;65.83;98548.68;106132;1282;22593;-89
2022/07/28 00:52:24;;;;;;;;;;;;;;;16.27;65.62;98543.35;105971;1282;124100;-91
2022/07/28 00:54:50;;;;;;;;;;;;;;;16.28;65.85;98547.80;105907;1284;25128;-90
2022/07/28 00:57:19;;;;;;;;;;;;;;;16.28;65.54;98544.23;106389;1284;124782;-89
2022/07/28 00:59:47;;;;;;;;;;;;;;;16.27;65.61;98544.06;105788;1284;22537;-88
2022/07/28 01:02:13;;;;;;;;;;;;;;;16.26;65.66;98549.19;105833;1284;24435;-88
2022/07/28 01:04:39;;;;;;;;;;;;;;;16.21;66.14;98549.52;105806;1284;126445;-89
2022/07/28 01:07:14;;;;;;;;;;;;;;;16.22;66.52;98555.52;105992;1284;23778;-90
2022/07/28 01:09:44;;;;;;;;;;;;;;;16.19;66.69;98553.72;105952;1284;125341;-90
2022/07/28 01:12:17;;;;;;;;;;;;;;;16.14;67.21;98554.23;106289;1284;24365;-91
2022/07/28 01:14:57;;;;;;;;;;;;;;;16.08;67.63;98556.04;106365;1284;124151;-91
2022/07/28 01:17:33;;;;;;;;;;;;;;;16.03;68.08;98558.42;106117;1285;22559;-91
2022/07/28 01:20:08;;;;;;;;;;;;;;;15.97;68.26;98559.48;106062;1284;22601;-91
2022/07/28 01:22:55;;;;;;;;;;;;;;;15.95;68.76;98561.14;105956;1282;124295;-91
2022/07/28 01:25:32;;;;;;;;;;;;;;;15.93;68.61;98563.11;105792;1283;22901;-91
2022/07/28 01:28:21;;;;;;;;;;;;;;;15.93;68.45;98562.34;105578;1284;125367;-90
2022/07/28 01:30:52;;;;;;;;;;;;;;;15.95;68.41;98560.09;106423;1284;22573;-88
2022/07/28 01:33:34;;;;;;;;;;;;;;;15.99;68.13;98556.89;105760;1284;125930;-88
2022/07/28 01:36:07;;;;;;;;;;;;;;;16.05;68.36;98559.63;105733;1285;23870;-88
2022/07/28 01:38:34;;;;;;;;;;;;;;;16.11;68.29;98556.27;106034;1284;124429;-89
2022/07/28 01:41:01;;;;;;;;;;;;;;;16.13;67.66;98551.48;105720;1287;25378;-88
2022/07/28 01:43:28;;;;;;;;;;;;;;;16.15;67.92;98550.82;106042;1284;22566;-88
2022/07/28 01:45:55;;;;;;;;;;;;;;;16.18;68.31;98548.98;105606;1284;124315;-88
2022/07/28 01:48:26;;;;;;;;;;;;;;;16.22;68.17;98548.48;105971;1284;22607;-88
2022/07/28 01:50:54;;;;;;;;;;;;;;;16.24;67.63;98543.04;105732;1284;124812;-88
2022/07/28 01:53:24;;;;;;;;;;;;;;;16.25;67.65;98542.31;105462;1284;23950;-87
2022/07/28 01:55:58;;;;;;;;;;;;;;;16.28;67.45;98544.17;106197;1284;22691;-89
2022/07/28 01:58:27;;;;;;;;;;;;;;;16.27;66.90;98542.86;105955;1284;124194;-89
2022/07/28 02:01:02;;;;;;;;;;;;;;;16.32;67.27;98555.48;105921;1283;24367;-89
2022/07/28 02:03:33;;;;;;;;;;;;;;;16.36;67.61;98565.20;105393;1284;124093;-88
2022/07/28 02:06:01;;;;;;;;;;;;;;;16.39;67.72;98570.25;106206;1284;22612;-88
2022/07/28 02:08:30;;;;;;;;;;;;;;;16.42;67.36;98573.48;105802;1284;124498;-88
2022/07/28 02:13:38;;;;;;;;;;;;;;;16.46;67.45;98572.85;105773;1284;22561;-89
2022/07/28 02:16:11;;;;;;;;;;;;;;;16.47;67.64;98574.08;105244;1285;124707;-89
2022/07/28 02:18:38;;;;;;;;;;;;;;;16.47;67.23;98573.40;105396;1284;22631;-88
2022/07/28 02:21:05;;;;;;;;;;;;;;;16.44;67.09;98570.01;105502;1284;124620;-89
2022/07/28 02:23:38;;;;;;;;;;;;;;;16.43;67.03;98570.45;105489;1284;22600;-88
2022/07/28 02:26:09;;;;;;;;;;;;;;;16.44;67.47;98575.61;105633;1284;22609;-89
2022/07/28 02:28:36;;;;;;;;;;;;;;;16.45;67.76;98575.10;105400;1284;124498;-90
2022/07/28 02:31:08;;;;;;;;;;;;;;;16.49;67.92;98577.52;105536;1284;22608;-88
2022/07/28 02:33:36;;;;;;;;;;;;;;;16.52;67.46;98579.70;105802;1284;124449;-89
2022/07/28 02:36:10;;;;;;;;;;;;;;;16.56;67.18;98579.52;106055;1284;22540;-88
2022/07/28 02:38:47;;;;;;;;;;;;;;;16.60;66.91;98583.73;105469;1284;124234;-89
2022/07/28 02:41:37;;;;;;;;;;;;;;;16.60;66.46;98587.00;105511;1285;25399;-88
2022/07/28 02:44:10;;;;;;;;;;;;;;;16.56;66.02;98587.27;105293;1287;22562;-88
2022/07/28 02:46:42;;;;;;;;;;;;;;;16.60;66.42;98590.73;105837;1284;124032;-88
2022/07/28 02:49:27;;;;;;;;;;;;;;;16.61;66.96;98591.71;105534;1285;25438;-88
2022/07/28 02:51:54;;;;;;;;;;;;;;;16.63;67.06;98599.13;105560;1284;124176;-89
2022/07/28 02:54:27;;;;;;;;;;;;;;;16.63;66.48;98601.66;105836;1284;25315;-89
2022/07/28 02:56:56;;;;;;;;;;;;;;;16.61;66.27;98599.52;105709;1284;124509;-89
2022/07/28 02:59:26;;;;;;;;;;;;;;;16.57;66.21;98600.52;105896;1283;24320;-88
2022/07/28 03:01:53;;;;;;;;;;;;;;;16.55;66.69;98605.82;105920;1284;25395;-89
2022/07/28 03:07:05;;;;;;;;;;;;;;;16.47;66.90;98614.80;105616;1284;25264;-89
2022/07/28 03:09:42;;;;;;;;;;;;;;;16.45;66.96;98623.81;105818;1284;124711;-88
2022/07/28 03:12:09;;;;;;;;;;;;;;;16.45;67.46;98629.75;105729;1284;22565;-88
2022/07/28 03:14:36;;;;;;;;;;;;;;;16.46;67.38;98631.02;106101;1284;124354;-88
2022/07/28 03:17:02;;;;;;;;;;;;;;;16.46;67.20;98634.65;105772;1284;23323;-89
2022/07/28 03:19:32;;;;;;;;;;;;;;;16.46;66.97;98634.92;105832;1284;25242;-89
2022/07/28 03:22:07;;;;;;;;;;;;;;;16.47;66.95;98636.14;105463;1285;125037;-88
2022/07/28 03:24:36;;;;;;;;;;;;;;;16.48;67.18;98636.63;105713;1287;22571;-88
2022/07/28 03:27:19;;;;;;;;;;;;;;;16.49;67.19;98638.71;105636;1284;124427;-90
2022/07/28 03:29:51;;;;;;;;;;;;;;;16.51;67.29;98637.39;105440;1284;22542;-89
2022/07/28 03:32:21;;;;;;;;;;;;;;;16.51;67.64;98634.70;105642;1287;22543;-89
2022/07/28 03:34:51;;;;;;;;;;;;;;;16.51;67.63;98630.67;105218;1284;124215;-89
2022/07/28 03:37:22;;;;;;;;;;;;;;;16.55;67.37;98637.88;105578;1284;22540;-88
2022/07/28 03:39:50;;;;;;;;;;;;;;;16.54;67.48;98635.52;105521;1284;124418;-88
2022/07/28 03:42:18;;;;;;;;;;;;;;;16.54;67.28;98636.40;105875;1284;24875;-90
2022/07/28 03:44:46;;;;;;;;;;;;;;;16.55;66.88;98639.85;105689;1284;124273;-89
2022/07/28 03:47:13;;;;;;;;;;;;;;;16.50;66.42;98643.60;105802;1284;22560;-89
2022/07/28 03:49:39;;;;;;;;;;;;;;;16.41;66.67;98646.04;105585;1284;24448;-89
2022/07/28 03:52:06;;;;;;;;;;;;;;;16.35;67.46;98653.65;106019;1284;124413;-89
2022/07/28 03:54:32;;;;;;;;;;;;;;;16.30;67.68;98652.02;105927;1284;22631;-89
2022/07/28 03:56:58;;;;;;;;;;;;;;;16.26;68.30;98653.00;105827;1283;125238;-89
2022/07/28 03:59:24;;;;;;;;;;;;;;;16.23;68.40;98653.17;105844;1284;22561;-89
2022/07/28 04:01:53;;;;;;;;;;;;;;;16.19;68.44;98658.07;105661;1285;22571;-89
2022/07/28 04:04:19;;;;;;;;;;;;;;;16.11;68.26;98660.61;105780;1283;124526;-89
2022/07/28 04:06:45;;;;;;;;;;;;;;;16.03;68.46;98664.73;105771;1282;22598;-88
2022/07/28 04:09:11;;;;;;;;;;;;;;;16.00;69.13;98667.48;105809;1284;124295;-90
2022/07/28 04:11:37;;;;;;;;;;;;;;;15.94;69.42;98664.90;105997;1284;22576;-90
2022/07/28 04:14:03;;;;;;;;;;;;;;;15.89;69.63;98665.61;105773;1284;22480;-90
2022/07/28 04:16:29;;;;;;;;;;;;;;;15.89;69.49;98665.95;105432;1284;124186;-90
2022/07/28 04:18:55;;;;;;;;;;;;;;;15.86;69.48;98667.60;105365;1282;25213;-90
2022/07/28 04:21:22;;;;;;;;;;;;;;;15.85;69.61;98667.44;105427;1285;124413;-90
2022/07/28 04:23:48;;;;;;;;;;;;;;;15.89;69.42;98674.07;105573;1285;23311;-88
2022/07/28 04:26:16;;;;;;;;;;;;;;;15.91;69.12;98672.98;105829;1284;22701;-89
2022/07/28 04:28:43;;;;;;;;;;;;;;;15.94;68.80;98671.92;106185;1284;124490;-89
2022/07/28 04:31:09;;;;;;;;;;;;;;;15.96;68.25;98671.21;105954;1284;24261;-89
2022/07/28 04:33:35;;;;;;;;;;;;;;;15.92;68.19;98670.73;105807;1285;124436;-89
2022/07/28 04:36:01;;;;;;;;;;;;;;;15.89;68.36;98668.91;106043;1284;25376;-89
2022/07/28 04:38:33;;;;;;;;;;;;;;;15.85;68.20;98667.98;105871;1284;124328;-89
2022/07/28 04:40:59;;;;;;;;;;;;;;;15.83;68.20;98667.15;106165;1285;22550;-89
2022/07/28 04:43:25;;;;;;;;;;;;;;;15.85;68.77;98664.14;106232;1281;22575;-89
2022/07/28 04:45:53;;;;;;;;;;;;;;;15.90;68.58;98662.65;106152;1282;124608;-88
2022/07/28 04:48:23;;;;;;;;;;;;;;;15.93;68.41;98662.42;105695;1284;22557;-89
2022/07/28 04:50:51;;;;;;;;;;;;;;;15.95;68.55;98662.75;105650;1284;125121;-88
2022/07/28 04:53:17;;;;;;;;;;;;;;;16.01;68.75;98658.25;106130;1284;22560;-88
2022/07/28 04:55:44;;;;;;;;;;;;;;;16.06;68.18;98664.46;105771;1284;22837;-88
2022/07/28 04:58:11;;;;;;;;;;;;;;;16.07;67.84;98664.80;106248;1284;124101;-89
2022/07/28 05:00:37;;;;;;;;;;;;;;;16.11;67.64;98677.52;105690;1284;30747;-88
2022/07/28 05:03:04;;;;;;;;;;;;;;;16.13;67.55;98680.95;105828;1284;124516;-88
2022/07/28 05:05:30;;;;;;;;;;;;;;;16.14;67.32;98682.52;106276;1284;22674;-88
2022/07/28 05:07:56;;;;;;;;;;;;;;;16.19;67.45;98686.27;106182;1284;22566;-89
2022/07/28 05:10:22;;;;;;;;;;;;;;;16.22;67.32;98688.58;105603;1284;124872;-88
2022/07/28 05:12:49;;;;;;;;;;;;;;;16.28;67.62;98691.80;105937;1284;24242;-88
2022/07/28 05:15:15;;;;;;;;;;;;;;;16.36;67.41;98689.05;105399;1284;124163;-88
2022/07/28 05:17:41;;;;;;;;;;;;;;;16.44;67.30;98685.29;105601;1284;25400;-88
2022/07/28 05:20:08;;;;;;;;;;;;;;;16.51;67.39;98685.45;105332;1284;24330;-89
2022/07/28 05:22:41;;;;;;;;;;;;;;;16.57;66.87;98685.44;105863;1284;124068;-88
2022/07/28 05:25:17;;;;;;;;;;;;;;;16.60;66.45;98689.87;105800;1284;25318;-89
2022/07/28 05:27:44;;;;;;;;;;;;;;;16.64;65.87;98696.19;105742;1284;124103;-88
2022/07/28 05:30:11;;;;;;;;;;;;;;;16.67;65.60;98699.55;106745;1284;24304;-89
2022/07/28 05:32:37;;;;;;;;;;;;;;;16.70;65.20;98702.16;106145;1284;124258;-88
2022/07/28 05:35:04;;;;;;;;;;;;;;;16.76;64.86;98702.86;106364;1284;24271;-88
2022/07/28 05:37:34;;;;;;;;;;;;;;;16.81;65.11;98701.53;106101;1284;26527;-88
2022/07/28 05:40:03;;;;;;;;;;;;;;;16.90;65.23;98704.77;106120;1284;124494;-88
2022/07/28 05:42:34;;;;;;;;;;;;;;;16.96;64.71;98704.42;105865;1284;22559;-89
2022/07/28 05:45:04;;;;;;;;;;;;;;;17.04;64.76;98709.24;105581;1284;124071;-80
2022/07/28 05:47:30;;;;;;;;;;;;;;;17.10;64.73;98710.14;105816;1284;22887;-80
2022/07/28 05:50:00;;;;;;;;;;;;;;;17.15;64.50;98707.15;106147;1282;23462;-80
2022/07/28 05:52:27;;;;;;;;;;;;;;;17.17;64.61;98715.51;106149;1283;124112;-80
2022/07/28 05:54:54;;;;;;;;;;;;;;;17.22;64.60;98718.52;105985;1283;23924;-83
2022/07/28 05:57:21;;;;;;;;;;;;;;;17.28;64.17;98720.14;106419;1284;124025;-84
2022/07/28 05:59:47;;;;;;;;;;;;;;;17.30;63.99;98724.15;106323;1284;22576;-81
2022/07/28 06:02:13;;;;;;;;;;;;;;;17.31;64.35;98722.77;106537;1283;22605;-83
2022/07/28 06:04:39;;;;;;;;;;;;;;;17.33;64.17;98721.92;105881;1285;124405;-83
2022/07/28 06:07:06;;;;;;;;;;;;;;;17.34;64.06;98719.35;106602;1283;23947;-83
2022/07/28 06:09:32;;;;;;;;;;;;;;;17.33;63.92;98720.66;106193;1284;124679;-81
2022/07/28 06:11:58;;;;;;;;;;;;;;;17.36;64.33;98720.92;106083;1284;23197;-84
2022/07/28 06:14:24;;;;;;;;;;;;;;;17.36;64.39;98720.27;106032;1284;25056;-81
2022/07/28 06:16:50;;;;;;;;;;;;;;;17.36;64.00;98723.79;106137;1284;124013;-82
2022/07/28 06:19:16;;;;;;;;;;;;;;;17.38;63.97;98723.85;105694;1283;22561;-82
2022/07/28 06:21:42;;;;;;;;;;;;;;;17.39;63.95;98725.48;106092;1284;124325;-81
2022/07/28 06:24:09;;;;;;;;;;;;;;;17.42;64.41;98726.02;106127;1284;22551;-81
2022/07/28 06:26:36;;;;;;;;;;;;;;;17.39;63.72;98726.02;105941;1282;124735;-81
2022/07/28 06:29:03;;;;;;;;;;;;;;;17.37;63.99;98725.44;105863;1284;22585;-82
2022/07/28 06:31:29;;;;;;;;;;;;;;;17.43;64.04;98727.06;105919;1283;24337;-81
2022/07/28 06:33:55;;;;;;;;;;;;;;;17.50;64.21;98726.20;105632;1283;124998;-79
2022/07/28 06:36:21;;;;;;;;;;;;;;;17.65;64.84;98729.02;106000;1282;25724;-79
2022/07/28 06:39:02;;;;;;;;;;;;;;;17.86;64.54;98728.35;105819;1284;124338;-80
2022/07/28 06:41:28;;;;;;;;;;;;;;;18.08;63.78;98724.23;105680;1284;25251;-80
2022/07/28 06:43:54;;;;;;;;;;;;;;;18.23;63.21;98724.27;105636;1284;22578;-79
2022/07/28 06:46:20;;;;;;;;;;;;;;;18.37;63.05;98720.91;105846;1284;124167;-81
2022/07/28 06:48:47;;;;;;;;;;;;;;;18.50;62.14;98717.40;105879;1282;22537;-82
2022/07/28 06:51:17;;;;;;;;;;;;;;;18.63;61.63;98718.89;105889;1284;124175;-82
2022/07/28 06:53:46;;;;;;;;;;;;;;;18.73;60.51;98723.58;106153;1284;22559;-81
2022/07/28 06:56:12;;;;;;;;;;;;;;;18.86;60.19;98723.08;106105;1284;22926;-83
2022/07/28 06:58:39;;;;;;;;;;;;;;;18.97;60.52;98726.21;106045;1284;124324;-83
2022/07/28 07:01:19;;;;;;;;;;;;;;;19.09;59.79;98726.02;105775;1284;22831;-82
2022/07/28 07:03:45;;;;;;;;;;;;;;;19.16;59.34;98727.86;105640;1285;124174;-82
2022/07/28 07:06:26;;;;;;;;;;;;;;;19.22;59.15;98731.27;105724;1284;24269;-83
2022/07/28 07:08:52;;;;;;;;;;;;;;;19.23;58.51;98731.42;105426;1282;124384;-83
2022/07/28 07:11:18;;;;;;;;;;;;;;;19.26;58.98;98732.39;105513;1284;22545;-84
2022/07/28 07:13:44;;;;;;;;;;;;;;;19.32;59.13;98732.98;105604;1284;22540;-82
2022/07/28 07:16:10;;;;;;;;;;;;;;;19.41;58.29;98733.78;105503;1284;125088;-81
2022/07/28 07:18:36;;;;;;;;;;;;;;;19.56;58.59;98732.65;105611;1284;22544;-81
2022/07/28 07:21:02;;;;;;;;;;;;;;;19.66;57.75;98733.39;105851;1284;124271;-81
2022/07/28 07:23:28;;;;;;;;;;;;;;;19.64;56.29;98730.83;105979;1284;22566;-81
2022/07/28 07:25:54;;;;;;;;;;;;;;;19.70;56.76;98731.64;105590;1285;24448;-81
2022/07/28 07:28:20;;;;;;;;;;;;;;;19.77;56.36;98728.85;105686;1284;124240;-81
2022/07/28 07:30:47;;;;;;;;;;;;;;;19.77;55.81;98727.13;106055;1284;22551;-81
2022/07/28 07:33:13;;;;;;;;;;;;;;;19.82;56.13;98725.19;105728;1284;124005;-81
2022/07/28 07:35:39;;;;;;;;;;;;;;;19.94;55.49;98725.77;105814;1284;23963;-82
2022/07/28 07:38:05;;;;;;;;;;;;;;;20.04;55.91;98720.74;105759;1284;22887;-82
2022/07/28 07:40:31;;;;;;;;;;;;;;;20.16;56.62;98718.88;105971;1284;124188;-83
2022/07/28 07:42:58;;;;;;;;;;;;;;;20.27;55.63;98716.21;105916;1284;25445;-83
2022/07/28 07:45:24;;;;;;;;;;;;;;;20.35;55.18;98715.52;105627;1284;124106;-85
2022/07/28 07:48:04;;;;;;;;;;;;;;;20.42;54.41;98718.06;105761;1284;22716;-83
2022/07/28 07:50:30;;;;;;;;;;;;;;;20.45;53.12;98720.50;105911;1284;124832;-84
2022/07/28 07:52:57;;;;;;;;;;;;;;;20.47;53.12;98719.73;105821;1282;22553;-82
2022/07/28 07:55:23;;;;;;;;;;;;;;;20.48;52.93;98718.58;105959;1284;22586;-82
2022/07/28 07:57:49;;;;;;;;;;;;;;;20.50;53.29;98720.74;105923;1282;123909;-84
2022/07/28 08:00:15;;;;;;;;;;;;;;;20.56;53.41;98723.23;106108;1282;22586;-82
2022/07/28 08:02:41;;;;;;;;;;;;;;;20.64;53.58;98723.12;105782;1282;124940;-82
2022/07/28 08:05:08;;;;;;;;;;;;;;;20.70;52.54;98719.98;105898;1282;25392;-81
2022/07/28 08:07:34;;;;;;;;;;;;;;;20.75;52.31;98722.33;106004;1282;22761;-85
2022/07/28 08:10:01;;;;;;;;;;;;;;;20.80;52.17;98722.16;105820;1282;124210;-85
2022/07/28 08:12:27;;;;;;;;;;;;;;;20.90;52.27;98720.98;105727;1282;22545;-85
2022/07/28 08:14:53;;;;;;;;;;;;;;;21.01;52.04;98715.45;105944;1282;124489;-85
2022/07/28 08:17:20;;;;;;;;;;;;;;;21.13;51.43;98711.67;106344;1282;23404;-83
2022/07/28 08:19:46;;;;;;;;;;;;;;;21.22;51.13;98711.24;105548;1282;22551;-84
2022/07/28 08:22:12;;;;;;;;;;;;;;;21.29;49.63;98708.95;105666;1282;124121;-84
2022/07/28 08:24:38;;;;;;;;;;;;;;;21.33;48.20;98705.80;106077;1284;30658;-83
2022/07/28 08:27:04;;;;;;;;;;;;;;;21.32;48.53;98707.60;105822;1282;124428;-84
2022/07/28 08:29:30;;;;;;;;;;;;;;;21.35;48.92;98707.70;105715;1282;24366;-84
2022/07/28 08:31:56;;;;;;;;;;;;;;;21.47;48.66;98707.92;106245;1282;24279;-83
2022/07/28 08:34:24;;;;;;;;;;;;;;;21.62;48.36;98709.86;105767;1282;124061;-83
2022/07/28 08:36:50;;;;;;;;;;;;;;;21.75;48.00;98707.83;105600;1282;23511;-85
2022/07/28 08:39:16;;;;;;;;;;;;;;;21.87;47.48;98705.95;105908;1282;124112;-85
2022/07/28 08:41:56;;;;;;;;;;;;;;;21.99;47.24;98708.49;105973;1282;22565;-85
2022/07/28 08:44:26;;;;;;;;;;;;;;;22.10;46.49;98706.18;105700;1282;25054;-84
2022/07/28 08:46:52;;;;;;;;;;;;;;;22.21;46.22;98706.96;105598;1284;22681;-82
2022/07/28 08:49:19;;;;;;;;;;;;;;;22.32;46.21;98707.77;105763;1284;22554;-83
2022/07/28 08:51:48;;;;;;;;;;;;;;;22.40;45.73;98704.02;106026;1284;123988;-82
2022/07/28 08:54:25;;;;;;;;;;;;;;;22.45;45.77;98706.42;105861;1282;22534;-82
2022/07/28 08:56:52;;;;;;;;;;;;;;;22.57;46.00;98704.13;106056;1282;124317;-83
2022/07/28 08:59:18;;;;;;;;;;;;;;;22.68;45.99;98697.38;105944;1282;22557;-86
2022/07/28 09:01:45;;;;;;;;;;;;;;;22.80;45.20;98703.11;105958;1282;23288;-86
2022/07/28 09:04:11;;;;;;;;;;;;;;;22.86;45.50;98701.11;105799;1282;123957;-86
2022/07/28 09:06:41;;;;;;;;;;;;;;;22.97;45.39;98699.85;105689;1282;25421;-85
2022/07/28 09:09:08;;;;;;;;;;;;;;;23.04;45.56;98698.39;105632;1281;124542;-84
2022/07/28 09:11:35;;;;;;;;;;;;;;;23.12;45.47;98692.73;105884;1283;25556;-83
2022/07/28 09:14:01;;;;;;;;;;;;;;;23.22;45.43;98698.16;106016;1282;22710;-83
2022/07/28 09:16:27;;;;;;;;;;;;;;;23.34;45.78;98693.38;105520;1282;124092;-84
2022/07/28 09:18:54;;;;;;;;;;;;;;;23.44;46.14;98691.11;105845;1282;25260;-83
2022/07/28 09:21:20;;;;;;;;;;;;;;;23.55;46.44;98690.83;105601;1282;124410;-85
2022/07/28 09:23:47;;;;;;;;;;;;;;;23.71;45.45;98688.19;106414;1284;22538;-82
2022/07/28 09:26:14;;;;;;;;;;;;;;;23.83;44.63;98686.15;105950;1282;22571;-83
2022/07/28 09:28:48;;;;;;;;;;;;;;;23.96;44.47;98690.80;105847;1282;124262;-83
2022/07/28 09:31:14;;;;;;;;;;;;;;;24.03;43.53;98690.98;106252;1281;22547;-84
2022/07/28 09:33:51;;;;;;;;;;;;;;;24.12;44.16;98691.67;105898;1282;123078;-84
2022/07/28 09:36:17;;;;;;;;;;;;;;;24.23;43.99;98695.30;105925;1282;25382;-84
2022/07/28 09:38:43;;;;;;;;;;;;;;;24.29;42.83;98691.55;105959;1282;124256;-85
2022/07/28 09:41:10;;;;;;;;;;;;;;;24.33;43.50;98691.29;106447;1282;22537;-84
2022/07/28 09:43:51;;;;;;;;;;;;;;;24.46;43.21;98691.51;105893;1282;22865;-84
2022/07/28 09:46:19;;;;;;;;;;;;;;;24.60;43.64;98692.02;105678;1282;124254;-85
2022/07/28 09:48:48;;;;;;;;;;;;;;;24.72;42.81;98694.05;106264;1282;26498;-83
2022/07/28 09:51:15;;;;;;;;;;;;;;;24.81;42.56;98693.42;105903;1282;124137;-87
2022/07/28 09:54:07;;;;;;;;;;;;;;;24.95;41.95;98690.64;105526;1284;22586;-84
2022/07/28 09:56:48;;;;;;;;;;;;;;;25.05;41.38;98687.29;105823;1284;124080;-80
2022/07/28 09:59:15;;;;;;;;;;;;;;;25.06;40.86;98689.64;106413;1282;22544;-80
2022/07/28 10:01:52;;;;;;;;;;;;;;;25.14;40.85;98686.41;106040;1282;23283;-80
2022/07/28 10:04:29;;;;;;;;;;;;;;;25.26;41.78;98687.36;106088;1282;124275;-80
2022/07/28 10:07:06;;;;;;;;;;;;;;;25.47;41.92;98688.23;106244;1284;30316;-79
2022/07/28 10:09:32;;;;;;;;;;;;;;;25.73;41.54;98688.09;105703;1284;124281;-78
2022/07/28 10:12:12;;;;;;;;;;;;;;;25.87;40.81;98692.75;105758;1284;24375;-77
2022/07/28 10:14:38;;;;;;;;;;;;;;;25.96;40.86;98686.09;105565;1283;124075;-79
2022/07/28 10:17:04;;;;;;;;;;;;;;;26.07;40.18;98686.61;105812;1282;25338;-76
2022/07/28 10:19:30;;;;;;;;;;;;;;;26.21;39.47;98686.69;105562;1282;25428;-77
2022/07/28 10:21:57;;;;;;;;;;;;;;;26.35;39.40;98691.93;105784;1282;124037;-77
2022/07/28 10:24:25;;;;;;;;;;;;;;;26.46;38.50;98690.31;106016;1282;22539;-78
2022/07/28 10:26:55;;;;;;;;;;;;;;;26.42;37.63;98683.60;105737;1282;124339;-77
2022/07/28 10:29:23;;;;;;;;;;;;;;;26.32;37.80;98678.95;105738;1282;25327;-77
2022/07/28 10:31:51;;;;;;;;;;;;;;;26.24;38.16;98678.35;105826;1282;22882;-78
2022/07/28 10:34:22;;;;;;;;;;;;;;;26.30;39.05;98676.73;105758;1282;124116;-79
2022/07/28 10:36:49;;;;;;;;;;;;;;;26.44;38.92;98674.67;105920;1282;22535;-77
2022/07/28 10:39:18;;;;;;;;;;;;;;;26.59;39.03;98668.16;105806;1282;124111;-78
2022/07/28 10:41:44;;;;;;;;;;;;;;;26.74;38.89;98675.55;105970;1284;25265;-77
2022/07/28 10:44:14;;;;;;;;;;;;;;;26.87;38.97;98675.43;105514;1285;24282;-78
2022/07/28 10:46:41;;;;;;;;;;;;;;;27.06;38.57;98668.00;105521;1284;124125;-77
2022/07/28 10:49:07;;;;;;;;;;;;;;;27.20;38.29;98667.64;106189;1282;22581;-77
2022/07/28 10:51:34;;;;;;;;;;;;;;;27.31;38.95;98670.25;106188;1282;124427;-77
2022/07/28 10:54:06;;;;;;;;;;;;;;;27.39;38.88;98668.66;105957;1282;22709;-77
2022/07/28 10:56:32;;;;;;;;;;;;;;;27.47;38.62;98668.50;105828;1282;124326;-77
2022/07/28 10:59:02;;;;;;;;;;;;;;;27.54;38.63;98664.70;106322;1282;22557;-77
2022/07/28 11:01:35;;;;;;;;;;;;;;;27.61;37.69;98663.64;106020;1282;23331;-78
2022/07/28 11:04:01;;;;;;;;;;;;;;;27.68;38.35;98661.95;106787;1282;124142;-79
2022/07/28 11:06:29;;;;;;;;;;;;;;;27.91;37.68;98661.45;106535;1284;25279;-79
2022/07/28 11:08:59;;;;;;;;;;;;;;;28.09;37.25;98655.78;106489;1282;124368;-79
2022/07/28 11:11:39;;;;;;;;;;;;;;;28.16;36.21;98656.93;106390;1282;24323;-78
2022/07/28 11:14:19;;;;;;;;;;;;;;;28.16;35.88;98656.54;106314;1282;22550;-79
2022/07/28 11:16:46;;;;;;;;;;;;;;;28.03;35.68;98651.77;106119;1282;123975;-78
2022/07/28 11:19:13;;;;;;;;;;;;;;;28.07;35.74;98650.61;106366;1282;22578;-79
2022/07/28 11:21:59;;;;;;;;;;;;;;;28.15;35.99;98649.00;106033;1282;124735;-79
2022/07/28 11:24:25;;;;;;;;;;;;;;;28.36;37.16;98652.60;106594;1282;22668;-79
2022/07/28 11:26:53;;;;;;;;;;;;;;;28.53;36.23;98644.34;106435;1282;124342;-78
2022/07/28 11:29:20;;;;;;;;;;;;;;;28.67;35.96;98638.60;106205;1282;22594;-78
2022/07/28 11:31:46;;;;;;;;;;;;;;;28.82;36.28;98636.60;106249;1284;24265;-78
2022/07/28 11:34:13;;;;;;;;;;;;;;;28.91;35.07;98642.04;106381;1282;124891;-78
2022/07/28 11:37:00;;;;;;;;;;;;;;;28.87;35.52;98637.52;106650;1282;22539;-76
2022/07/28 11:39:41;;;;;;;;;;;;;;;28.81;35.52;98641.64;105939;1282;124493;-76
2022/07/28 11:42:22;;;;;;;;;;;;;;;28.75;35.77;98639.48;106440;1284;22734;-76
2022/07/28 11:44:48;;;;;;;;;;;;;;;28.84;35.68;98641.61;106092;1284;124510;-75
2022/07/28 11:47:24;;;;;;;;;;;;;;;28.96;35.30;98641.42;106403;1281;22808;-76
2022/07/28 11:50:04;;;;;;;;;;;;;;;29.10;34.86;98641.12;105733;1285;22688;-76
2022/07/28 11:52:31;;;;;;;;;;;;;;;29.19;34.42;98637.27;105900;1283;124372;-75
2022/07/28 11:54:57;;;;;;;;;;;;;;;29.30;34.62;98635.59;105944;1282;517814;-75
2022/07/28 11:57:24;;;;;;;;;;;;;;;29.42;34.96;98626.88;106134;1284;125078;-76
2022/07/28 11:59:52;;;;;;;;;;;;;;;29.49;34.90;98625.03;106384;1282;24084;-76
2022/07/28 12:02:20;;;;;;;;;;;;;;;29.33;34.55;98628.92;106601;1282;22696;-76
2022/07/28 12:05:01;;;;;;;;;;;;;;;29.25;34.82;98629.88;106154;1282;124420;-75
2022/07/28 12:07:29;;;;;;;;;;;;;;;29.43;35.01;98630.91;105946;1284;22699;-75
2022/07/28 12:09:55;;;;;;;;;;;;;;;29.46;34.28;98632.20;105580;1284;124452;-76
2022/07/28 12:12:22;;;;;;;;;;;;;;;29.42;33.61;98627.36;105736;1284;22563;-75
2022/07/28 12:14:48;;;;;;;;;;;;;;;29.45;33.75;98620.70;106147;1282;125127;-75
2022/07/28 12:17:33;;;;;;;;;;;;;;;29.57;34.00;98617.50;105834;1282;22533;-75
2022/07/28 12:20:07;;;;;;;;;;;;;;;29.81;34.57;98617.46;105835;1282;22565;-75
2022/07/28 12:22:33;;;;;;;;;;;;;;;30.01;34.29;98611.94;105495;1284;124191;-76
2022/07/28 12:24:59;;;;;;;;;;;;;;;30.10;33.17;98610.10;105962;1284;22593;-76
2022/07/28 12:27:26;;;;;;;;;;;;;;;30.07;32.89;98609.48;105914;1284;124150;-76
2022/07/28 12:29:57;;;;;;;;;;;;;;;29.90;33.05;98610.04;105840;1283;22550;-76
2022/07/28 12:32:36;;;;;;;;;;;;;;;29.67;33.17;98614.43;105804;1282;22575;-75
2022/07/28 12:35:03;;;;;;;;;;;;;;;29.36;33.23;98618.48;105724;1285;24295;-75
2022/07/28 12:37:29;;;;;;;;;;;;;;;29.00;33.70;98620.38;106057;1284;23340;-74
2022/07/28 12:39:56;;;;;;;;;;;;;;;28.88;34.80;98616.58;106430;1282;124187;-74
2022/07/28 12:42:23;;;;;;;;;;;;;;;29.05;34.60;98615.42;105696;1284;22651;-75
2022/07/28 12:44:52;;;;;;;;;;;;;;;29.17;34.13;98615.65;105608;1282;124680;-74
2022/07/28 12:47:30;;;;;;;;;;;;;;;29.28;33.97;98606.77;106163;1284;22617;-76